Weather at Newark Liberty International Airport

Public forecast

Using degrees Fahrenheit for public forecast. Weather courtesy of forecast.io.

Current aviation weather report (METAR) for Newark Liberty International Airport

Retrieved 2022/07/06 03:33 UTC (7 minutes ago):

KEWR 060333Z 20010KT 10SM SCT022 BKN032 BKN100 25/20 A2983 RMK AO2 T02500200

Aviation forecast (TAF) for Newark Liberty International Airport

Retrieved 2022-07-06 00:42 UTC (3 hours ago):

TAF KEWR 052339Z 0600/0706 17010G17KT P6SM VCSH FEW020 BKN040 FM060100 19011G19KT P6SM VCSH SCT015 BKN035 FM060400 24011G17KT P6SM SCT015 BKN025 TEMPO 0605/0609 P6SM BKN009 FM060900 30011KT P6SM FEW030 BKN050 FM061300 32012KT P6SM SCT050 BKN250 FM070100 01006KT P6SM FEW050